sensor_id;sensor_type;location;lat;lon;timestamp;temperature;humidity
23618;DHT22;18207;32.078;34.818;2024-01-30T00:01:20;19.30;46.60
23618;DHT22;18207;32.078;34.818;2024-01-30T00:03:52;19.30;46.60
23618;DHT22;18207;32.078;34.818;2024-01-30T00:06:21;19.30;46.60
23618;DHT22;18207;32.078;34.818;2024-01-30T00:08:51;19.30;46.70
23618;DHT22;18207;32.078;34.818;2024-01-30T00:11:21;19.30;46.70
23618;DHT22;18207;32.078;34.818;2024-01-30T00:13:53;19.30;46.70
23618;DHT22;18207;32.078;34.818;2024-01-30T00:16:24;19.30;46.80
23618;DHT22;18207;32.078;34.818;2024-01-30T00:18:56;19.30;46.80
23618;DHT22;18207;32.078;34.818;2024-01-30T00:21:26;19.30;46.90
23618;DHT22;18207;32.078;34.818;2024-01-30T00:23:56;19.30;47.00
23618;DHT22;18207;32.078;34.818;2024-01-30T00:26:25;19.30;46.90
23618;DHT22;18207;32.078;34.818;2024-01-30T00:28:55;19.30;46.90
23618;DHT22;18207;32.078;34.818;2024-01-30T00:31:24;19.30;46.90
23618;DHT22;18207;32.078;34.818;2024-01-30T00:33:56;19.40;47.00
23618;DHT22;18207;32.078;34.818;2024-01-30T00:36:26;19.30;46.90
23618;DHT22;18207;32.078;34.818;2024-01-30T00:38:57;19.30;47.40
23618;DHT22;18207;32.078;34.818;2024-01-30T00:41:26;19.30;46.90
23618;DHT22;18207;32.078;34.818;2024-01-30T00:43:56;19.30;46.90
23618;DHT22;18207;32.078;34.818;2024-01-30T00:46:26;19.30;46.90
23618;DHT22;18207;32.078;34.818;2024-01-30T00:48:57;19.40;46.90
23618;DHT22;18207;32.078;34.818;2024-01-30T00:51:28;19.30;46.80
23618;DHT22;18207;32.078;34.818;2024-01-30T00:53:58;19.30;46.80
23618;DHT22;18207;32.078;34.818;2024-01-30T00:56:28;19.30;46.80
23618;DHT22;18207;32.078;34.818;2024-01-30T00:58:58;19.30;46.80
23618;DHT22;18207;32.078;34.818;2024-01-30T01:01:27;19.30;46.80
23618;DHT22;18207;32.078;34.818;2024-01-30T01:03:59;19.30;46.80
23618;DHT22;18207;32.078;34.818;2024-01-30T01:06:28;19.30;46.80
23618;DHT22;18207;32.078;34.818;2024-01-30T01:08:58;19.30;46.90
23618;DHT22;18207;32.078;34.818;2024-01-30T01:11:31;19.30;46.90
23618;DHT22;18207;32.078;34.818;2024-01-30T01:14:01;19.30;46.90
23618;DHT22;18207;32.078;34.818;2024-01-30T01:16:30;19.30;46.90
23618;DHT22;18207;32.078;34.818;2024-01-30T01:19:02;19.20;46.90
23618;DHT22;18207;32.078;34.818;2024-01-30T01:21:32;19.30;46.90
23618;DHT22;18207;32.078;34.818;2024-01-30T01:24:01;19.30;47.00
23618;DHT22;18207;32.078;34.818;2024-01-30T01:26:33;19.30;47.00
23618;DHT22;18207;32.078;34.818;2024-01-30T01:29:03;19.20;46.90
23618;DHT22;18207;32.078;34.818;2024-01-30T01:31:37;19.30;46.90
23618;DHT22;18207;32.078;34.818;2024-01-30T01:34:13;19.20;46.80
23618;DHT22;18207;32.078;34.818;2024-01-30T01:36:43;19.20;46.80
23618;DHT22;18207;32.078;34.818;2024-01-30T01:39:12;19.20;46.80
23618;DHT22;18207;32.078;34.818;2024-01-30T01:41:42;19.20;46.90
23618;DHT22;18207;32.078;34.818;2024-01-30T01:44:12;19.20;46.90
23618;DHT22;18207;32.078;34.818;2024-01-30T01:46:41;19.10;46.90
23618;DHT22;18207;32.078;34.818;2024-01-30T01:49:14;19.20;46.90
23618;DHT22;18207;32.078;34.818;2024-01-30T01:51:50;19.20;46.90
23618;DHT22;18207;32.078;34.818;2024-01-30T01:54:23;19.20;47.00
23618;DHT22;18207;32.078;34.818;2024-01-30T01:56:55;19.10;47.00
23618;DHT22;18207;32.078;34.818;2024-01-30T01:59:25;19.20;47.00
23618;DHT22;18207;32.078;34.818;2024-01-30T02:01:55;19.10;46.90
23618;DHT22;18207;32.078;34.818;2024-01-30T02:04:27;19.10;46.90
23618;DHT22;18207;32.078;34.818;2024-01-30T02:06:57;19.10;47.00
23618;DHT22;18207;32.078;34.818;2024-01-30T02:09:27;19.10;47.00
23618;DHT22;18207;32.078;34.818;2024-01-30T02:11:57;19.10;47.10
23618;DHT22;18207;32.078;34.818;2024-01-30T02:14:27;19.10;47.10
23618;DHT22;18207;32.078;34.818;2024-01-30T02:16:57;19.10;47.00
23618;DHT22;18207;32.078;34.818;2024-01-30T02:19:29;19.10;47.00
23618;DHT22;18207;32.078;34.818;2024-01-30T02:22:01;19.10;47.00
23618;DHT22;18207;32.078;34.818;2024-01-30T02:24:31;19.10;47.00
23618;DHT22;18207;32.078;34.818;2024-01-30T02:27:00;19.10;47.70
23618;DHT22;18207;32.078;34.818;2024-01-30T02:29:30;19.10;47.00
23618;DHT22;18207;32.078;34.818;2024-01-30T02:31:59;19.10;47.00
23618;DHT22;18207;32.078;34.818;2024-01-30T02:34:29;19.00;46.90
23618;DHT22;18207;32.078;34.818;2024-01-30T02:37:00;19.00;46.90
23618;DHT22;18207;32.078;34.818;2024-01-30T02:39:30;19.00;46.90
23618;DHT22;18207;32.078;34.818;2024-01-30T02:42:00;19.00;46.90
23618;DHT22;18207;32.078;34.818;2024-01-30T02:44:29;19.00;46.90
23618;DHT22;18207;32.078;34.818;2024-01-30T02:46:59;18.90;46.90
23618;DHT22;18207;32.078;34.818;2024-01-30T02:49:28;18.90;46.90
23618;DHT22;18207;32.078;34.818;2024-01-30T02:52:00;19.00;47.00
23618;DHT22;18207;32.078;34.818;2024-01-30T02:54:30;19.00;47.10
23618;DHT22;18207;32.078;34.818;2024-01-30T02:56:59;18.90;46.90
23618;DHT22;18207;32.078;34.818;2024-01-30T02:59:42;19.00;47.10
23618;DHT22;18207;32.078;34.818;2024-01-30T03:02:12;19.00;47.10
23618;DHT22;18207;32.078;34.818;2024-01-30T03:04:41;18.90;47.10
23618;DHT22;18207;32.078;34.818;2024-01-30T03:07:13;19.00;47.10
23618;DHT22;18207;32.078;34.818;2024-01-30T03:09:43;19.00;47.10
23618;DHT22;18207;32.078;34.818;2024-01-30T03:12:13;19.00;47.00
23618;DHT22;18207;32.078;34.818;2024-01-30T03:14:43;19.00;47.10
23618;DHT22;18207;32.078;34.818;2024-01-30T03:17:12;18.90;47.00
23618;DHT22;18207;32.078;34.818;2024-01-30T03:19:42;19.00;47.10
23618;DHT22;18207;32.078;34.818;2024-01-30T03:22:14;19.00;47.10
23618;DHT22;18207;32.078;34.818;2024-01-30T03:24:43;19.00;47.10
23618;DHT22;18207;32.078;34.818;2024-01-30T03:27:13;19.00;47.10
23618;DHT22;18207;32.078;34.818;2024-01-30T03:29:43;19.00;47.00
23618;DHT22;18207;32.078;34.818;2024-01-30T03:32:13;19.00;47.00
23618;DHT22;18207;32.078;34.818;2024-01-30T03:34:42;19.00;47.00
23618;DHT22;18207;32.078;34.818;2024-01-30T03:37:28;18.90;46.90
23618;DHT22;18207;32.078;34.818;2024-01-30T03:39:57;18.90;46.90
23618;DHT22;18207;32.078;34.818;2024-01-30T03:42:27;18.90;46.90
23618;DHT22;18207;32.078;34.818;2024-01-30T03:44:57;18.90;47.50
23618;DHT22;18207;32.078;34.818;2024-01-30T03:47:26;18.90;47.00
23618;DHT22;18207;32.078;34.818;2024-01-30T03:49:56;18.90;47.00
23618;DHT22;18207;32.078;34.818;2024-01-30T03:52:28;18.90;47.10
23618;DHT22;18207;32.078;34.818;2024-01-30T03:54:57;18.90;47.00
23618;DHT22;18207;32.078;34.818;2024-01-30T03:57:27;18.90;47.00
23618;DHT22;18207;32.078;34.818;2024-01-30T03:59:57;18.90;46.90
23618;DHT22;18207;32.078;34.818;2024-01-30T04:02:29;18.90;46.90
23618;DHT22;18207;32.078;34.818;2024-01-30T04:04:59;18.90;46.90
23618;DHT22;18207;32.078;34.818;2024-01-30T04:07:31;18.90;46.90
23618;DHT22;18207;32.078;34.818;2024-01-30T04:10:00;18.90;46.90
23618;DHT22;18207;32.078;34.818;2024-01-30T04:12:33;18.90;47.00
23618;DHT22;18207;32.078;34.818;2024-01-30T04:15:03;18.80;46.80
23618;DHT22;18207;32.078;34.818;2024-01-30T04:17:33;18.90;47.00
23618;DHT22;18207;32.078;34.818;2024-01-30T04:20:03;18.80;46.90
23618;DHT22;18207;32.078;34.818;2024-01-30T04:22:36;18.80;46.90
23618;DHT22;18207;32.078;34.818;2024-01-30T04:25:06;18.80;46.90
23618;DHT22;18207;32.078;34.818;2024-01-30T04:27:36;18.80;46.80
23618;DHT22;18207;32.078;34.818;2024-01-30T04:30:06;18.80;46.80
23618;DHT22;18207;32.078;34.818;2024-01-30T04:32:37;18.80;46.80
23618;DHT22;18207;32.078;34.818;2024-01-30T04:35:07;18.80;46.70
23618;DHT22;18207;32.078;34.818;2024-01-30T04:37:40;18.80;46.70
23618;DHT22;18207;32.078;34.818;2024-01-30T04:40:23;18.80;46.70
23618;DHT22;18207;32.078;34.818;2024-01-30T04:42:53;18.80;46.60
23618;DHT22;18207;32.078;34.818;2024-01-30T04:45:22;18.80;46.60
23618;DHT22;18207;32.078;34.818;2024-01-30T04:47:52;18.80;46.70
23618;DHT22;18207;32.078;34.818;2024-01-30T04:50:22;18.70;46.60
23618;DHT22;18207;32.078;34.818;2024-01-30T04:52:53;18.70;46.60
23618;DHT22;18207;32.078;34.818;2024-01-30T04:55:23;18.70;46.60
23618;DHT22;18207;32.078;34.818;2024-01-30T04:57:53;18.70;46.60
23618;DHT22;18207;32.078;34.818;2024-01-30T05:00:22;18.70;46.60
23618;DHT22;18207;32.078;34.818;2024-01-30T05:02:52;18.70;46.50
23618;DHT22;18207;32.078;34.818;2024-01-30T05:05:21;18.70;46.50
23618;DHT22;18207;32.078;34.818;2024-01-30T05:07:53;18.70;46.50
23618;DHT22;18207;32.078;34.818;2024-01-30T05:10:22;18.60;46.50
23618;DHT22;18207;32.078;34.818;2024-01-30T05:12:52;18.60;46.50
23618;DHT22;18207;32.078;34.818;2024-01-30T05:15:22;18.60;46.80
23618;DHT22;18207;32.078;34.818;2024-01-30T05:17:51;18.60;46.50
23618;DHT22;18207;32.078;34.818;2024-01-30T05:20:21;18.60;46.50
23618;DHT22;18207;32.078;34.818;2024-01-30T05:22:50;18.50;46.40
23618;DHT22;18207;32.078;34.818;2024-01-30T05:25:22;18.50;46.40
23618;DHT22;18207;32.078;34.818;2024-01-30T05:27:52;18.50;46.50
23618;DHT22;18207;32.078;34.818;2024-01-30T05:30:22;18.50;46.50
23618;DHT22;18207;32.078;34.818;2024-01-30T05:32:52;18.50;46.50
23618;DHT22;18207;32.078;34.818;2024-01-30T05:35:22;18.50;46.60
23618;DHT22;18207;32.078;34.818;2024-01-30T05:37:53;18.50;46.60
23618;DHT22;18207;32.078;34.818;2024-01-30T05:40:23;18.50;46.70
23618;DHT22;18207;32.078;34.818;2024-01-30T05:42:53;18.50;46.70
23618;DHT22;18207;32.078;34.818;2024-01-30T05:45:23;18.60;46.90
23618;DHT22;18207;32.078;34.818;2024-01-30T05:47:53;18.60;46.90
23618;DHT22;18207;32.078;34.818;2024-01-30T05:50:22;18.60;46.90
23618;DHT22;18207;32.078;34.818;2024-01-30T05:52:56;18.60;46.80
23618;DHT22;18207;32.078;34.818;2024-01-30T05:55:25;18.70;46.80
23618;DHT22;18207;32.078;34.818;2024-01-30T05:57:55;18.70;46.90
23618;DHT22;18207;32.078;34.818;2024-01-30T06:00:25;18.80;47.00
23618;DHT22;18207;32.078;34.818;2024-01-30T06:02:54;18.80;47.00
23618;DHT22;18207;32.078;34.818;2024-01-30T06:05:24;18.90;47.10
23618;DHT22;18207;32.078;34.818;2024-01-30T06:07:55;19.00;47.30
23618;DHT22;18207;32.078;34.818;2024-01-30T06:10:25;19.00;47.30
23618;DHT22;18207;32.078;34.818;2024-01-30T06:12:54;19.20;47.50
23618;DHT22;18207;32.078;34.818;2024-01-30T06:15:24;19.20;47.40
23618;DHT22;18207;32.078;34.818;2024-01-30T06:17:54;19.30;47.40
23618;DHT22;18207;32.078;34.818;2024-01-30T06:20:23;19.40;47.40
23618;DHT22;18207;32.078;34.818;2024-01-30T06:22:55;19.50;47.40
23618;DHT22;18207;32.078;34.818;2024-01-30T06:25:25;19.60;47.40
23618;DHT22;18207;32.078;34.818;2024-01-30T06:27:55;19.70;47.50
23618;DHT22;18207;32.078;34.818;2024-01-30T06:30:24;19.80;47.40
23618;DHT22;18207;32.078;34.818;2024-01-30T06:32:54;19.90;47.40
23618;DHT22;18207;32.078;34.818;2024-01-30T06:35:25;20.00;47.30
23618;DHT22;18207;32.078;34.818;2024-01-30T06:37:58;20.10;47.20
23618;DHT22;18207;32.078;34.818;2024-01-30T06:40:27;20.20;47.00
23618;DHT22;18207;32.078;34.818;2024-01-30T06:42:57;20.20;46.80
23618;DHT22;18207;32.078;34.818;2024-01-30T06:45:27;20.30;46.80
23618;DHT22;18207;32.078;34.818;2024-01-30T06:47:56;20.30;46.70
23618;DHT22;18207;32.078;34.818;2024-01-30T06:50:26;20.40;46.80
23618;DHT22;18207;32.078;34.818;2024-01-30T06:52:57;20.40;46.70
23618;DHT22;18207;32.078;34.818;2024-01-30T06:55:27;20.50;46.60
23618;DHT22;18207;32.078;34.818;2024-01-30T06:57:57;20.60;46.60
23618;DHT22;18207;32.078;34.818;2024-01-30T07:00:26;20.60;46.40
23618;DHT22;18207;32.078;34.818;2024-01-30T07:02:56;20.60;46.40
23618;DHT22;18207;32.078;34.818;2024-01-30T07:05:26;20.70;46.40
23618;DHT22;18207;32.078;34.818;2024-01-30T07:07:57;20.70;46.40
23618;DHT22;18207;32.078;34.818;2024-01-30T07:10:27;20.80;46.50
23618;DHT22;18207;32.078;34.818;2024-01-30T07:12:56;20.80;46.60
23618;DHT22;18207;32.078;34.818;2024-01-30T07:15:26;20.90;46.60
23618;DHT22;18207;32.078;34.818;2024-01-30T07:17:56;21.00;46.50
23618;DHT22;18207;32.078;34.818;2024-01-30T07:20:26;21.00;46.30
23618;DHT22;18207;32.078;34.818;2024-01-30T07:22:59;21.10;46.20
23618;DHT22;18207;32.078;34.818;2024-01-30T07:25:29;21.10;46.00
23618;DHT22;18207;32.078;34.818;2024-01-30T07:27:59;21.20;46.10
23618;DHT22;18207;32.078;34.818;2024-01-30T07:30:28;21.20;46.20
23618;DHT22;18207;32.078;34.818;2024-01-30T07:32:58;21.30;46.30
23618;DHT22;18207;32.078;34.818;2024-01-30T07:35:28;21.40;46.30
23618;DHT22;18207;32.078;34.818;2024-01-30T07:37:59;21.40;46.30
23618;DHT22;18207;32.078;34.818;2024-01-30T07:40:29;21.50;46.40
23618;DHT22;18207;32.078;34.818;2024-01-30T07:43:00;21.60;46.40
23618;DHT22;18207;32.078;34.818;2024-01-30T07:45:31;21.70;46.40
23618;DHT22;18207;32.078;34.818;2024-01-30T07:48:01;21.80;46.90
23618;DHT22;18207;32.078;34.818;2024-01-30T07:50:31;21.80;46.80
23618;DHT22;18207;32.078;34.818;2024-01-30T07:53:03;21.90;46.20
23618;DHT22;18207;32.078;34.818;2024-01-30T07:55:33;22.00;46.20
23618;DHT22;18207;32.078;34.818;2024-01-30T07:58:02;22.10;46.10
23618;DHT22;18207;32.078;34.818;2024-01-30T08:00:32;22.20;46.00
23618;DHT22;18207;32.078;34.818;2024-01-30T08:03:02;22.30;46.00
23618;DHT22;18207;32.078;34.818;2024-01-30T08:05:32;22.30;45.80
23618;DHT22;18207;32.078;34.818;2024-01-30T08:08:04;22.40;45.60
23618;DHT22;18207;32.078;34.818;2024-01-30T08:10:34;22.40;45.40
23618;DHT22;18207;32.078;34.818;2024-01-30T08:13:04;22.40;45.20
23618;DHT22;18207;32.078;34.818;2024-01-30T08:15:36;22.40;45.00
23618;DHT22;18207;32.078;34.818;2024-01-30T08:18:06;22.40;45.00
23618;DHT22;18207;32.078;34.818;2024-01-30T08:20:37;22.40;44.90
23618;DHT22;18207;32.078;34.818;2024-01-30T08:23:08;22.40;44.90
23618;DHT22;18207;32.078;34.818;2024-01-30T08:25:38;22.40;44.90
23618;DHT22;18207;32.078;34.818;2024-01-30T08:28:07;22.50;44.90
23618;DHT22;18207;32.078;34.818;2024-01-30T08:30:37;22.40;44.80
23618;DHT22;18207;32.078;34.818;2024-01-30T08:33:07;22.50;45.00
23618;DHT22;18207;32.078;34.818;2024-01-30T08:35:37;22.50;45.00
23618;DHT22;18207;32.078;34.818;2024-01-30T08:38:08;22.60;45.00
23618;DHT22;18207;32.078;34.818;2024-01-30T08:40:39;22.70;45.00
23618;DHT22;18207;32.078;34.818;2024-01-30T08:43:16;22.70;44.80
23618;DHT22;18207;32.078;34.818;2024-01-30T08:45:45;22.80;44.70
23618;DHT22;18207;32.078;34.818;2024-01-30T08:48:15;22.80;44.70
23618;DHT22;18207;32.078;34.818;2024-01-30T08:50:45;22.90;44.60
23618;DHT22;18207;32.078;34.818;2024-01-30T08:53:16;22.90;44.50
23618;DHT22;18207;32.078;34.818;2024-01-30T08:55:46;23.00;44.50
23618;DHT22;18207;32.078;34.818;2024-01-30T08:58:16;23.00;44.40
23618;DHT22;18207;32.078;34.818;2024-01-30T09:00:47;23.10;44.20
23618;DHT22;18207;32.078;34.818;2024-01-30T09:03:17;23.10;44.10
23618;DHT22;18207;32.078;34.818;2024-01-30T09:05:46;23.10;43.80
23618;DHT22;18207;32.078;34.818;2024-01-30T09:08:18;23.10;43.70
23618;DHT22;18207;32.078;34.818;2024-01-30T09:10:48;23.10;43.50
23618;DHT22;18207;32.078;34.818;2024-01-30T09:13:21;23.00;43.40
23618;DHT22;18207;32.078;34.818;2024-01-30T09:15:51;23.00;43.40
23618;DHT22;18207;32.078;34.818;2024-01-30T09:18:20;23.10;43.40
23618;DHT22;18207;32.078;34.818;2024-01-30T09:20:50;23.10;43.30
23618;DHT22;18207;32.078;34.818;2024-01-30T09:23:22;23.00;43.20
23618;DHT22;18207;32.078;34.818;2024-01-30T09:25:51;23.00;43.10
23618;DHT22;18207;32.078;34.818;2024-01-30T09:28:21;23.00;43.00
23618;DHT22;18207;32.078;34.818;2024-01-30T09:30:53;23.00;42.90
23618;DHT22;18207;32.078;34.818;2024-01-30T09:33:24;22.90;42.80
23618;DHT22;18207;32.078;34.818;2024-01-30T09:35:54;22.90;42.70
23618;DHT22;18207;32.078;34.818;2024-01-30T09:38:26;22.90;42.70
23618;DHT22;18207;32.078;34.818;2024-01-30T09:40:56;22.80;42.60
23618;DHT22;18207;32.078;34.818;2024-01-30T09:43:30;22.70;42.60
23618;DHT22;18207;32.078;34.818;2024-01-30T09:46:03;22.70;42.70
23618;DHT22;18207;32.078;34.818;2024-01-30T09:48:34;22.70;42.70
23618;DHT22;18207;32.078;34.818;2024-01-30T09:51:05;22.70;42.60
23618;DHT22;18207;32.078;34.818;2024-01-30T09:53:39;22.60;42.60
23618;DHT22;18207;32.078;34.818;2024-01-30T09:56:12;22.60;42.60
23618;DHT22;18207;32.078;34.818;2024-01-30T09:58:41;22.60;42.60
23618;DHT22;18207;32.078;34.818;2024-01-30T10:01:11;22.50;42.40
23618;DHT22;18207;32.078;34.818;2024-01-30T10:03:41;22.50;42.30
23618;DHT22;18207;32.078;34.818;2024-01-30T10:06:11;22.50;42.20
23618;DHT22;18207;32.078;34.818;2024-01-30T10:08:43;22.40;42.10
23618;DHT22;18207;32.078;34.818;2024-01-30T10:11:12;22.30;42.60
23618;DHT22;18207;32.078;34.818;2024-01-30T10:13:42;22.30;42.00
23618;DHT22;18207;32.078;34.818;2024-01-30T10:16:13;22.30;42.10
23618;DHT22;18207;32.078;34.818;2024-01-30T10:18:56;22.30;42.10
23618;DHT22;18207;32.078;34.818;2024-01-30T10:21:26;22.20;42.10
23618;DHT22;18207;32.078;34.818;2024-01-30T10:24:06;22.20;42.20
23618;DHT22;18207;32.078;34.818;2024-01-30T10:26:38;22.20;42.10
23618;DHT22;18207;32.078;34.818;2024-01-30T10:29:10;22.20;42.00
23618;DHT22;18207;32.078;34.818;2024-01-30T10:31:40;22.10;41.90
23618;DHT22;18207;32.078;34.818;2024-01-30T10:34:09;22.10;41.90
23618;DHT22;18207;32.078;34.818;2024-01-30T10:36:50;22.10;41.90
23618;DHT22;18207;32.078;34.818;2024-01-30T10:39:32;22.10;41.80
23618;DHT22;18207;32.078;34.818;2024-01-30T10:42:11;22.10;41.80
23618;DHT22;18207;32.078;34.818;2024-01-30T10:44:50;22.10;41.80
23618;DHT22;18207;32.078;34.818;2024-01-30T10:47:27;22.00;41.60
23618;DHT22;18207;32.078;34.818;2024-01-30T10:49:58;22.10;41.70
23618;DHT22;18207;32.078;34.818;2024-01-30T10:52:32;22.00;41.60
23618;DHT22;18207;32.078;34.818;2024-01-30T10:55:04;22.00;41.60
23618;DHT22;18207;32.078;34.818;2024-01-30T10:57:36;21.90;41.40
23618;DHT22;18207;32.078;34.818;2024-01-30T11:00:08;22.00;41.50
23618;DHT22;18207;32.078;34.818;2024-01-30T11:02:41;21.90;41.50
23618;DHT22;18207;32.078;34.818;2024-01-30T11:05:13;21.90;41.60
23618;DHT22;18207;32.078;34.818;2024-01-30T11:07:43;21.90;41.40
23618;DHT22;18207;32.078;34.818;2024-01-30T11:10:15;21.90;41.40
23618;DHT22;18207;32.078;34.818;2024-01-30T11:12:46;21.80;41.20
23618;DHT22;18207;32.078;34.818;2024-01-30T11:15:18;21.80;41.20
23618;DHT22;18207;32.078;34.818;2024-01-30T11:17:51;21.80;41.20
23618;DHT22;18207;32.078;34.818;2024-01-30T11:20:25;21.80;41.10
23618;DHT22;18207;32.078;34.818;2024-01-30T11:22:57;21.80;41.10
23618;DHT22;18207;32.078;34.818;2024-01-30T11:25:31;21.80;41.10
23618;DHT22;18207;32.078;34.818;2024-01-30T11:28:01;21.80;41.10
23618;DHT22;18207;32.078;34.818;2024-01-30T11:30:33;21.70;41.10
23618;DHT22;18207;32.078;34.818;2024-01-30T11:33:05;21.70;41.10
23618;DHT22;18207;32.078;34.818;2024-01-30T11:35:37;21.80;41.10
23618;DHT22;18207;32.078;34.818;2024-01-30T11:38:08;21.70;41.00
23618;DHT22;18207;32.078;34.818;2024-01-30T11:40:40;21.70;41.00
23618;DHT22;18207;32.078;34.818;2024-01-30T11:43:10;21.70;41.00
23618;DHT22;18207;32.078;34.818;2024-01-30T11:45:40;21.70;40.90
23618;DHT22;18207;32.078;34.818;2024-01-30T11:48:12;21.70;40.80
23618;DHT22;18207;32.078;34.818;2024-01-30T11:50:42;21.60;41.40
23618;DHT22;18207;32.078;34.818;2024-01-30T11:53:13;21.70;40.80
23618;DHT22;18207;32.078;34.818;2024-01-30T11:56:03;21.60;40.80
23618;DHT22;18207;32.078;34.818;2024-01-30T11:58:36;21.60;40.70
23618;DHT22;18207;32.078;34.818;2024-01-30T12:01:06;21.60;40.70
23618;DHT22;18207;32.078;34.818;2024-01-30T12:03:36;21.60;40.80
23618;DHT22;18207;32.078;34.818;2024-01-30T12:06:05;21.60;40.80
23618;DHT22;18207;32.078;34.818;2024-01-30T12:08:35;21.60;40.80
23618;DHT22;18207;32.078;34.818;2024-01-30T12:11:08;21.60;40.80
23618;DHT22;18207;32.078;34.818;2024-01-30T12:13:38;21.60;40.80
23618;DHT22;18207;32.078;34.818;2024-01-30T12:16:08;21.60;40.80
23618;DHT22;18207;32.078;34.818;2024-01-30T12:18:37;21.60;40.80
23618;DHT22;18207;32.078;34.818;2024-01-30T12:21:07;21.50;40.70
23618;DHT22;18207;32.078;34.818;2024-01-30T12:23:37;21.50;40.60
23618;DHT22;18207;32.078;34.818;2024-01-30T12:26:08;21.50;40.70
23618;DHT22;18207;32.078;34.818;2024-01-30T12:28:48;21.50;40.70
23618;DHT22;18207;32.078;34.818;2024-01-30T12:31:18;21.50;40.60
23618;DHT22;18207;32.078;34.818;2024-01-30T12:33:59;21.50;40.60
23618;DHT22;18207;32.078;34.818;2024-01-30T12:36:30;21.60;41.30
23618;DHT22;18207;32.078;34.818;2024-01-30T12:39:01;21.60;40.60
23618;DHT22;18207;32.078;34.818;2024-01-30T12:41:33;21.60;40.60
23618;DHT22;18207;32.078;34.818;2024-01-30T12:44:03;21.60;40.50
23618;DHT22;18207;32.078;34.818;2024-01-30T12:46:34;21.60;40.40
23618;DHT22;18207;32.078;34.818;2024-01-30T12:49:04;21.60;40.40
23618;DHT22;18207;32.078;34.818;2024-01-30T12:51:34;21.60;40.30
23618;DHT22;18207;32.078;34.818;2024-01-30T12:54:05;21.60;40.20
23618;DHT22;18207;32.078;34.818;2024-01-30T12:56:37;21.60;40.20
23618;DHT22;18207;32.078;34.818;2024-01-30T12:59:07;21.60;40.20
23618;DHT22;18207;32.078;34.818;2024-01-30T13:01:37;21.70;40.30
23618;DHT22;18207;32.078;34.818;2024-01-30T13:04:07;21.70;40.30
23618;DHT22;18207;32.078;34.818;2024-01-30T13:06:37;21.70;40.20
23618;DHT22;18207;32.078;34.818;2024-01-30T13:09:07;21.70;40.10
23618;DHT22;18207;32.078;34.818;2024-01-30T13:11:38;21.70;40.00
23618;DHT22;18207;32.078;34.818;2024-01-30T13:14:08;21.70;40.00
23618;DHT22;18207;32.078;34.818;2024-01-30T13:16:38;21.70;40.00
23618;DHT22;18207;32.078;34.818;2024-01-30T13:19:08;21.70;40.00
23618;DHT22;18207;32.078;34.818;2024-01-30T13:21:38;21.70;40.00
23618;DHT22;18207;32.078;34.818;2024-01-30T13:24:08;21.70;39.90
23618;DHT22;18207;32.078;34.818;2024-01-30T13:26:39;21.70;40.00
23618;DHT22;18207;32.078;34.818;2024-01-30T13:29:13;21.70;40.00
23618;DHT22;18207;32.078;34.818;2024-01-30T13:31:42;21.60;39.90
23618;DHT22;18207;32.078;34.818;2024-01-30T13:34:14;21.70;40.00
23618;DHT22;18207;32.078;34.818;2024-01-30T13:36:44;21.60;40.00
23618;DHT22;18207;32.078;34.818;2024-01-30T13:39:14;21.60;40.00
23618;DHT22;18207;32.078;34.818;2024-01-30T13:41:47;21.60;40.10
23618;DHT22;18207;32.078;34.818;2024-01-30T13:44:17;21.60;40.10
23618;DHT22;18207;32.078;34.818;2024-01-30T13:46:56;21.60;40.20
23618;DHT22;18207;32.078;34.818;2024-01-30T13:49:26;21.60;40.10
23618;DHT22;18207;32.078;34.818;2024-01-30T13:51:57;21.60;40.10
23618;DHT22;18207;32.078;34.818;2024-01-30T13:54:27;21.60;40.10
23618;DHT22;18207;32.078;34.818;2024-01-30T13:57:03;21.60;40.20
23618;DHT22;18207;32.078;34.818;2024-01-30T13:59:32;21.60;40.20
23618;DHT22;18207;32.078;34.818;2024-01-30T14:02:02;21.60;40.20
23618;DHT22;18207;32.078;34.818;2024-01-30T14:04:33;21.60;40.10
23618;DHT22;18207;32.078;34.818;2024-01-30T14:07:14;21.60;40.10
23618;DHT22;18207;32.078;34.818;2024-01-30T14:09:46;21.60;40.00
23618;DHT22;18207;32.078;34.818;2024-01-30T14:12:18;21.60;40.10
23618;DHT22;18207;32.078;34.818;2024-01-30T14:14:48;21.60;40.00
23618;DHT22;18207;32.078;34.818;2024-01-30T14:17:17;21.50;39.80
23618;DHT22;18207;32.078;34.818;2024-01-30T14:19:47;21.50;39.80
23618;DHT22;18207;32.078;34.818;2024-01-30T14:22:17;21.50;39.80
23618;DHT22;18207;32.078;34.818;2024-01-30T14:24:47;21.50;39.90
23618;DHT22;18207;32.078;34.818;2024-01-30T14:27:18;21.50;39.80
23618;DHT22;18207;32.078;34.818;2024-01-30T14:29:48;21.50;39.80
23618;DHT22;18207;32.078;34.818;2024-01-30T14:32:17;21.50;39.80
23618;DHT22;18207;32.078;34.818;2024-01-30T14:34:47;21.50;39.80
23618;DHT22;18207;32.078;34.818;2024-01-30T14:37:16;21.50;39.80
23618;DHT22;18207;32.078;34.818;2024-01-30T14:39:47;21.40;39.80
23618;DHT22;18207;32.078;34.818;2024-01-30T14:42:18;21.50;39.80
23618;DHT22;18207;32.078;34.818;2024-01-30T14:44:48;21.40;39.70
23618;DHT22;18207;32.078;34.818;2024-01-30T14:47:20;21.50;39.80
23618;DHT22;18207;32.078;34.818;2024-01-30T14:49:50;21.50;39.80
23618;DHT22;18207;32.078;34.818;2024-01-30T14:52:20;21.50;39.80
23618;DHT22;18207;32.078;34.818;2024-01-30T14:54:50;21.50;39.80
23618;DHT22;18207;32.078;34.818;2024-01-30T14:57:21;21.40;39.70
23618;DHT22;18207;32.078;34.818;2024-01-30T14:59:53;21.40;39.70
23618;DHT22;18207;32.078;34.818;2024-01-30T15:02:23;21.40;39.70
23618;DHT22;18207;32.078;34.818;2024-01-30T15:04:52;21.40;39.70
23618;DHT22;18207;32.078;34.818;2024-01-30T15:07:22;21.40;39.90
23618;DHT22;18207;32.078;34.818;2024-01-30T15:10:05;21.40;40.00
23618;DHT22;18207;32.078;34.818;2024-01-30T15:12:39;21.40;40.10
23618;DHT22;18207;32.078;34.818;2024-01-30T15:15:09;21.40;40.20
23618;DHT22;18207;32.078;34.818;2024-01-30T15:17:38;21.40;40.30
23618;DHT22;18207;32.078;34.818;2024-01-30T15:20:09;21.40;40.40
23618;DHT22;18207;32.078;34.818;2024-01-30T15:22:39;21.50;40.70
23618;DHT22;18207;32.078;34.818;2024-01-30T15:25:09;21.50;40.70
23618;DHT22;18207;32.078;34.818;2024-01-30T15:27:40;21.50;40.70
23618;DHT22;18207;32.078;34.818;2024-01-30T15:30:11;21.50;40.80
23618;DHT22;18207;32.078;34.818;2024-01-30T15:32:41;21.50;40.90
23618;DHT22;18207;32.078;34.818;2024-01-30T15:35:12;21.40;40.90
23618;DHT22;18207;32.078;34.818;2024-01-30T15:37:42;21.40;41.60